Time;durP1;ratioP1;P1;durP2;ratioP2;P2;SDS_P1;SDS_P2;PMS_P1;PMS_P2;Temp;Humidity;BMP_temperature;BMP_pressure;BME280_temperature;BME280_humidity;BME280_pressure;Samples;Min_cycle;Max_cycle;Signal;HPM_P1;HPM_P2
2021/05/19 00:01:35;;;;;;;1.57;1.20;;;;;;;;;;5087122;28;20206;-78
2021/05/19 00:04:03;;;;;;;2.20;0.80;;;;;;;;;;5095886;28;20206;-77
2021/05/19 00:06:32;;;;;;;1.90;1.00;;;;;;;;;;5055300;28;20206;-78
2021/05/19 00:09:00;;;;;;;1.17;0.90;;;;;;;;;;5082342;28;20269;-78
2021/05/19 00:11:28;;;;;;;0.87;0.83;;;;;;;;;;5086313;28;20227;-76
2021/05/19 00:13:57;;;;;;;5.40;1.70;;;;;;;;;;5064930;28;20195;-76
2021/05/19 00:16:25;;;;;;;5.23;1.53;;;;;;;;;;5065557;28;20206;-77
2021/05/19 00:18:53;;;;;;;4.13;1.33;;;;;;;;;;5063292;28;20226;-76
2021/05/19 00:21:21;;;;;;;1.00;0.90;;;;;;;;;;5078587;28;20588;-76
2021/05/19 00:23:49;;;;;;;1.10;0.93;;;;;;;;;;5078001;28;20205;-76
2021/05/19 00:26:18;;;;;;;1.37;0.90;;;;;;;;;;5081989;28;20309;-77
2021/05/19 00:28:50;;;;;;;1.93;1.07;;;;;;;;;;5078102;28;20218;-76
2021/05/19 00:31:21;;;;;;;2.27;1.00;;;;;;;;;;5085599;28;20794;-77
2021/05/19 00:33:50;;;;;;;1.97;0.90;;;;;;;;;;5065698;28;20202;-78
2021/05/19 00:36:18;;;;;;;1.10;0.83;;;;;;;;;;5088800;28;20206;-77
2021/05/19 00:38:46;;;;;;;0.70;0.70;;;;;;;;;;5061269;28;20222;-79
2021/05/19 00:41:14;;;;;;;2.37;0.90;;;;;;;;;;5054090;28;20976;-78
2021/05/19 00:43:42;;;;;;;2.30;1.00;;;;;;;;;;5099036;28;20203;-78
2021/05/19 00:46:10;;;;;;;2.30;0.80;;;;;;;;;;5081320;28;20186;-78
2021/05/19 00:48:40;;;;;;;0.80;0.60;;;;;;;;;;5083160;28;20226;-76
2021/05/19 00:51:08;;;;;;;1.03;0.90;;;;;;;;;;5075807;28;20223;-80
2021/05/19 00:53:38;;;;;;;1.10;0.70;;;;;;;;;;5080302;28;20217;-77
2021/05/19 00:56:06;;;;;;;1.03;0.60;;;;;;;;;;5077726;28;20199;-76
2021/05/19 00:58:34;;;;;;;1.00;0.60;;;;;;;;;;5087564;28;20225;-77
2021/05/19 01:01:03;;;;;;;0.73;0.60;;;;;;;;;;5079863;28;20566;-78
2021/05/19 01:03:48;;;;;;;1.20;0.70;;;;;;;;;;5074579;28;20221;-76
2021/05/19 01:06:29;;;;;;;2.07;0.83;;;;;;;;;;5081448;28;20201;-76
2021/05/19 01:11:44;;;;;;;0.63;0.60;;;;;;;;;;5084344;28;20233;-78
2021/05/19 01:14:12;;;;;;;1.80;0.70;;;;;;;;;;5082103;28;20715;-77
2021/05/19 01:16:40;;;;;;;0.60;0.60;;;;;;;;;;5055481;28;20660;-78
2021/05/19 01:19:09;;;;;;;0.60;0.60;;;;;;;;;;5091493;28;20722;-81
2021/05/19 01:21:42;;;;;;;1.20;0.63;;;;;;;;;;5076447;28;20206;-77
2021/05/19 01:24:12;;;;;;;0.53;0.53;;;;;;;;;;5056982;28;20209;-78
2021/05/19 01:26:40;;;;;;;1.13;0.70;;;;;;;;;;5082822;28;20277;-78
2021/05/19 01:29:08;;;;;;;0.57;0.57;;;;;;;;;;5072158;28;20214;-77
2021/05/19 01:31:36;;;;;;;1.60;0.87;;;;;;;;;;5071401;28;20234;-78
2021/05/19 01:34:04;;;;;;;0.80;0.80;;;;;;;;;;5082363;28;20699;-80
2021/05/19 01:36:33;;;;;;;0.67;0.60;;;;;;;;;;5081860;28;20207;-80
2021/05/19 01:39:03;;;;;;;1.33;0.70;;;;;;;;;;5056321;28;20776;-78
2021/05/19 01:41:32;;;;;;;1.17;0.60;;;;;;;;;;5066775;28;20190;-77
2021/05/19 01:44:09;;;;;;;0.60;0.60;;;;;;;;;;5076723;28;20199;-78
2021/05/19 01:46:57;;;;;;;0.93;0.67;;;;;;;;;;5070062;28;20210;-77
2021/05/19 01:49:29;;;;;;;3.33;0.67;;;;;;;;;;5067495;28;20219;-77
2021/05/19 01:51:59;;;;;;;0.60;0.60;;;;;;;;;;5080595;28;20229;-78
2021/05/19 01:54:28;;;;;;;0.93;0.70;;;;;;;;;;5076069;28;20194;-77
2021/05/19 01:56:58;;;;;;;0.93;0.70;;;;;;;;;;5086758;28;20202;-77
2021/05/19 01:59:26;;;;;;;0.70;0.70;;;;;;;;;;5082545;28;20592;-78
2021/05/19 02:01:58;;;;;;;1.10;0.70;;;;;;;;;;5082537;28;20202;-78
2021/05/19 02:04:28;;;;;;;0.63;0.60;;;;;;;;;;5080829;28;20202;-78
2021/05/19 02:06:58;;;;;;;1.60;0.70;;;;;;;;;;5096264;28;20344;-78
2021/05/19 02:09:39;;;;;;;0.83;0.70;;;;;;;;;;5091677;28;20237;-78
2021/05/19 02:12:11;;;;;;;0.63;0.63;;;;;;;;;;5061713;28;20616;-79
2021/05/19 02:14:39;;;;;;;0.60;0.60;;;;;;;;;;5064278;28;20206;-78
2021/05/19 02:17:08;;;;;;;1.70;0.70;;;;;;;;;;5070433;28;20207;-78
2021/05/19 02:19:38;;;;;;;0.53;0.53;;;;;;;;;;5076728;28;20715;-77
2021/05/19 02:22:09;;;;;;;0.70;0.60;;;;;;;;;;5085553;28;20205;-77
2021/05/19 02:24:48;;;;;;;2.80;0.70;;;;;;;;;;5072417;28;20691;-79
2021/05/19 02:27:17;;;;;;;1.83;0.70;;;;;;;;;;5089954;28;20698;-79
2021/05/19 02:29:52;;;;;;;0.70;0.70;;;;;;;;;;5095055;28;20226;-78
2021/05/19 02:32:21;;;;;;;0.67;0.67;;;;;;;;;;5077875;28;20225;-78
2021/05/19 02:34:50;;;;;;;1.57;1.17;;;;;;;;;;5086052;28;20206;-78
2021/05/19 02:37:19;;;;;;;0.80;0.80;;;;;;;;;;5076605;28;20226;-79
2021/05/19 02:39:48;;;;;;;1.83;0.73;;;;;;;;;;5078731;28;20217;-78
2021/05/19 02:42:17;;;;;;;0.70;0.70;;;;;;;;;;5082493;28;20202;-80
2021/05/19 02:44:47;;;;;;;2.33;0.70;;;;;;;;;;5082268;28;20206;-78
2021/05/19 02:47:15;;;;;;;1.70;0.80;;;;;;;;;;5077818;28;20203;-78
2021/05/19 02:49:44;;;;;;;1.30;0.87;;;;;;;;;;5102879;28;20257;-77
2021/05/19 02:52:12;;;;;;;0.97;0.80;;;;;;;;;;5099738;28;20225;-77
2021/05/19 02:54:40;;;;;;;2.23;1.10;;;;;;;;;;5094565;28;20214;-78
2021/05/19 02:57:09;;;;;;;0.80;0.80;;;;;;;;;;5105150;28;20203;-79
2021/05/19 02:59:38;;;;;;;3.63;0.90;;;;;;;;;;5102883;28;20236;-77
2021/05/19 03:02:10;;;;;;;1.03;0.90;;;;;;;;;;5114844;28;20194;-76
2021/05/19 03:04:38;;;;;;;2.37;1.00;;;;;;;;;;5099250;28;20209;-77
2021/05/19 03:07:07;;;;;;;1.00;0.90;;;;;;;;;;5074765;28;20211;-79
2021/05/19 03:09:35;;;;;;;1.27;1.00;;;;;;;;;;5075909;28;20732;-77
2021/05/19 03:12:04;;;;;;;0.93;0.93;;;;;;;;;;5075726;28;20219;-77
2021/05/19 03:14:32;;;;;;;1.90;1.00;;;;;;;;;;5091496;28;20198;-77
2021/05/19 03:17:02;;;;;;;0.70;0.70;;;;;;;;;;5089934;28;20213;-78
2021/05/19 03:19:30;;;;;;;1.10;0.70;;;;;;;;;;5101999;28;20226;-77
2021/05/19 03:21:58;;;;;;;1.20;0.80;;;;;;;;;;5092890;28;20544;-76
2021/05/19 03:24:26;;;;;;;3.13;1.20;;;;;;;;;;5072052;28;20206;-77
2021/05/19 03:26:54;;;;;;;1.73;0.90;;;;;;;;;;5089116;28;20214;-77
2021/05/19 03:29:23;;;;;;;2.00;0.90;;;;;;;;;;5100047;28;20222;-78
2021/05/19 03:31:51;;;;;;;1.13;1.07;;;;;;;;;;5093010;28;20694;-77
2021/05/19 03:34:20;;;;;;;2.50;1.00;;;;;;;;;;5069332;28;20213;-77
2021/05/19 03:36:48;;;;;;;1.27;0.90;;;;;;;;;;5070671;28;21466;-78
2021/05/19 03:39:16;;;;;;;1.90;0.80;;;;;;;;;;5075898;28;20222;-78
2021/05/19 03:41:44;;;;;;;2.37;1.10;;;;;;;;;;5078952;28;20217;-79
2021/05/19 03:44:13;;;;;;;1.10;1.00;;;;;;;;;;5085802;28;20205;-78
2021/05/19 03:46:41;;;;;;;1.27;0.90;;;;;;;;;;5063913;28;20201;-79
2021/05/19 03:49:10;;;;;;;2.10;0.90;;;;;;;;;;5088129;28;20237;-78
2021/05/19 03:51:39;;;;;;;2.87;1.10;;;;;;;;;;5087461;28;20209;-77
2021/05/19 03:54:07;;;;;;;1.13;1.03;;;;;;;;;;5079605;28;20222;-78
2021/05/19 03:56:36;;;;;;;0.70;0.70;;;;;;;;;;5054777;28;20210;-79
2021/05/19 03:59:05;;;;;;;1.27;1.17;;;;;;;;;;5081032;28;20238;-78
2021/05/19 04:01:33;;;;;;;1.33;0.90;;;;;;;;;;5085702;28;20202;-78
2021/05/19 04:04:01;;;;;;;1.10;0.93;;;;;;;;;;5083346;28;20721;-78
2021/05/19 04:06:30;;;;;;;1.40;1.00;;;;;;;;;;5082914;28;20203;-77
2021/05/19 04:08:59;;;;;;;1.27;1.17;;;;;;;;;;5075520;28;20715;-78
2021/05/19 04:11:27;;;;;;;2.03;1.10;;;;;;;;;;5084945;28;20993;-78
2021/05/19 04:13:55;;;;;;;1.53;1.07;;;;;;;;;;5073579;28;20227;-76
2021/05/19 04:16:23;;;;;;;0.90;0.90;;;;;;;;;;5073360;28;20211;-78
2021/05/19 04:18:51;;;;;;;1.17;0.97;;;;;;;;;;5080470;28;20624;-77
2021/05/19 04:21:19;;;;;;;1.70;0.87;;;;;;;;;;5061387;28;20681;-77
2021/05/19 04:23:47;;;;;;;1.33;1.13;;;;;;;;;;5072356;28;20210;-77
2021/05/19 04:26:16;;;;;;;1.60;1.20;;;;;;;;;;5058877;28;20838;-77
2021/05/19 04:28:44;;;;;;;2.40;1.20;;;;;;;;;;5088436;28;20919;-79
2021/05/19 04:31:14;;;;;;;1.57;1.30;;;;;;;;;;5079793;28;20202;-77
2021/05/19 04:33:42;;;;;;;1.90;1.03;;;;;;;;;;5071983;28;20225;-78
2021/05/19 04:36:10;;;;;;;2.10;1.00;;;;;;;;;;5086951;28;20686;-78
2021/05/19 04:38:38;;;;;;;1.53;1.10;;;;;;;;;;5073227;28;20234;-79
2021/05/19 04:41:06;;;;;;;1.30;1.20;;;;;;;;;;5061072;28;20206;-79
2021/05/19 04:43:36;;;;;;;1.27;1.10;;;;;;;;;;5059013;28;20218;-78
2021/05/19 04:46:05;;;;;;;1.67;1.17;;;;;;;;;;5081968;28;20198;-77
2021/05/19 04:48:33;;;;;;;1.83;1.27;;;;;;;;;;5080572;28;20344;-78
2021/05/19 04:51:01;;;;;;;2.33;1.23;;;;;;;;;;5075341;28;20242;-78
2021/05/19 04:53:29;;;;;;;1.83;1.10;;;;;;;;;;5082230;28;20222;-78
2021/05/19 04:55:57;;;;;;;1.70;1.20;;;;;;;;;;5067248;28;20213;-78
2021/05/19 04:58:26;;;;;;;2.50;1.10;;;;;;;;;;5069666;28;20203;-78
2021/05/19 05:00:56;;;;;;;2.40;1.20;;;;;;;;;;5076655;28;20198;-77
2021/05/19 05:03:24;;;;;;;1.00;1.00;;;;;;;;;;5069602;28;20205;-78
2021/05/19 05:05:53;;;;;;;2.37;1.40;;;;;;;;;;5073401;28;20186;-78
2021/05/19 05:08:21;;;;;;;1.67;1.20;;;;;;;;;;5100728;28;20205;-78
2021/05/19 05:10:55;;;;;;;3.00;1.37;;;;;;;;;;5088019;28;20205;-77
2021/05/19 05:13:23;;;;;;;2.10;1.20;;;;;;;;;;5055011;28;20688;-82
2021/05/19 05:15:51;;;;;;;1.13;1.03;;;;;;;;;;5076033;28;20282;-79
2021/05/19 05:18:20;;;;;;;2.07;1.67;;;;;;;;;;5078585;28;20674;-79
2021/05/19 05:20:48;;;;;;;1.20;1.10;;;;;;;;;;5086722;28;20202;-79
2021/05/19 05:23:17;;;;;;;1.70;1.50;;;;;;;;;;5065954;28;20209;-78
2021/05/19 05:25:45;;;;;;;1.67;1.33;;;;;;;;;;5081636;28;20202;-79
2021/05/19 05:28:13;;;;;;;2.50;1.40;;;;;;;;;;5082332;28;20206;-76
2021/05/19 05:30:41;;;;;;;0.90;0.90;;;;;;;;;;5094535;28;20191;-79
2021/05/19 05:33:08;;;;;;;1.73;1.10;;;;;;;;;;5107685;28;20198;-78
2021/05/19 05:35:37;;;;;;;1.20;1.10;;;;;;;;;;5106886;28;20201;-78
2021/05/19 05:38:05;;;;;;;1.50;1.37;;;;;;;;;;5074860;28;20573;-78
2021/05/19 05:40:33;;;;;;;3.40;1.90;;;;;;;;;;5089645;28;20230;-79
2021/05/19 05:43:02;;;;;;;1.67;1.30;;;;;;;;;;5069393;28;20207;-79
2021/05/19 05:45:30;;;;;;;1.53;1.23;;;;;;;;;;5061687;28;20205;-79
2021/05/19 05:47:59;;;;;;;1.33;1.23;;;;;;;;;;5071792;28;20198;-79
2021/05/19 05:50:27;;;;;;;2.93;1.23;;;;;;;;;;5071765;28;20688;-78
2021/05/19 05:52:56;;;;;;;1.30;1.20;;;;;;;;;;5070942;28;20202;-79
2021/05/19 05:55:24;;;;;;;1.60;1.30;;;;;;;;;;5082236;28;20202;-79
2021/05/19 05:57:52;;;;;;;3.33;1.30;;;;;;;;;;5077315;28;20202;-79
2021/05/19 06:00:21;;;;;;;1.43;1.10;;;;;;;;;;5073508;28;20602;-79
2021/05/19 06:02:50;;;;;;;1.73;1.20;;;;;;;;;;5081058;28;20558;-80
2021/05/19 06:05:18;;;;;;;2.20;1.00;;;;;;;;;;5056143;28;20213;-79
2021/05/19 06:07:46;;;;;;;2.63;1.57;;;;;;;;;;5055163;28;20207;-79
2021/05/19 06:10:16;;;;;;;2.17;0.90;;;;;;;;;;5073251;28;20253;-78
2021/05/19 06:12:44;;;;;;;1.50;1.10;;;;;;;;;;5072892;28;20221;-80
2021/05/19 06:15:12;;;;;;;2.17;0.90;;;;;;;;;;5078734;28;20233;-78
2021/05/19 06:17:40;;;;;;;1.33;1.10;;;;;;;;;;5062211;28;20214;-79
2021/05/19 06:20:10;;;;;;;2.40;1.10;;;;;;;;;;5068527;28;20254;-80
2021/05/19 06:22:38;;;;;;;1.33;1.17;;;;;;;;;;5053066;28;20206;-77
2021/05/19 06:25:07;;;;;;;2.30;1.17;;;;;;;;;;5060068;28;20207;-79
2021/05/19 06:27:37;;;;;;;2.10;1.10;;;;;;;;;;5055717;28;20215;-79
2021/05/19 06:30:06;;;;;;;2.90;0.97;;;;;;;;;;5060465;28;20215;-76
2021/05/19 06:32:35;;;;;;;1.37;1.03;;;;;;;;;;5057622;28;20578;-75
2021/05/19 06:35:04;;;;;;;1.10;1.00;;;;;;;;;;5073300;28;20223;-76
2021/05/19 06:37:33;;;;;;;2.07;1.20;;;;;;;;;;5092176;28;20357;-74
2021/05/19 06:40:01;;;;;;;11.17;2.00;;;;;;;;;;5074063;28;20222;-76
2021/05/19 06:42:29;;;;;;;1.83;1.30;;;;;;;;;;5075274;28;20206;-76
2021/05/19 06:44:58;;;;;;;2.13;1.13;;;;;;;;;;5060397;28;20513;-77
2021/05/19 06:47:26;;;;;;;1.47;1.13;;;;;;;;;;5086703;28;20206;-76
2021/05/19 06:49:54;;;;;;;1.57;1.10;;;;;;;;;;5081817;28;20586;-77
2021/05/19 06:52:23;;;;;;;1.47;1.13;;;;;;;;;;5088304;28;20206;-77
2021/05/19 06:54:53;;;;;;;1.73;1.33;;;;;;;;;;5079960;28;20218;-75
2021/05/19 06:57:21;;;;;;;198.60;14.43;;;;;;;;;;5058087;28;20671;-76
2021/05/19 06:59:49;;;;;;;1.40;1.27;;;;;;;;;;5070698;28;20230;-76
2021/05/19 07:02:19;;;;;;;2.30;1.43;;;;;;;;;;5080859;28;20678;-76
2021/05/19 07:04:48;;;;;;;18.43;2.63;;;;;;;;;;5059503;28;20209;-77
2021/05/19 07:07:16;;;;;;;5.17;1.50;;;;;;;;;;5075100;28;20211;-77
2021/05/19 07:09:44;;;;;;;1.93;1.20;;;;;;;;;;5057157;28;20236;-77
2021/05/19 07:12:13;;;;;;;3.00;2.07;;;;;;;;;;5075822;28;20202;-77
2021/05/19 07:14:47;;;;;;;1.80;1.67;;;;;;;;;;5076376;28;20218;-79
2021/05/19 07:17:15;;;;;;;2.83;1.50;;;;;;;;;;5065504;28;20622;-78
2021/05/19 07:19:44;;;;;;;2.43;1.40;;;;;;;;;;5055863;28;20571;-76
2021/05/19 07:22:12;;;;;;;3.83;1.50;;;;;;;;;;5077276;28;21916;-78
2021/05/19 07:24:40;;;;;;;1.83;1.47;;;;;;;;;;5074265;28;20203;-78
2021/05/19 07:27:08;;;;;;;1.93;1.30;;;;;;;;;;5084528;28;20523;-77
2021/05/19 07:29:36;;;;;;;2.63;1.63;;;;;;;;;;5073527;28;20706;-76
2021/05/19 07:32:05;;;;;;;2.00;1.60;;;;;;;;;;5071456;28;20194;-75
2021/05/19 07:34:33;;;;;;;1.83;1.53;;;;;;;;;;5084193;28;20225;-75
2021/05/19 07:37:11;;;;;;;1.37;1.27;;;;;;;;;;5066527;28;20202;-77
2021/05/19 07:39:39;;;;;;;2.40;1.50;;;;;;;;;;5090793;28;20233;-76
2021/05/19 07:42:07;;;;;;;2.30;1.43;;;;;;;;;;5086207;28;20647;-75
2021/05/19 07:44:35;;;;;;;1.97;1.43;;;;;;;;;;5068548;28;20777;-75
2021/05/19 07:47:02;;;;;;;2.97;1.57;;;;;;;;;;5080529;28;20218;-75
2021/05/19 07:49:29;;;;;;;2.20;1.30;;;;;;;;;;5075880;28;20249;-77
2021/05/19 07:51:56;;;;;;;1.90;1.27;;;;;;;;;;5076899;28;20202;-76
2021/05/19 07:54:27;;;;;;;2.70;1.60;;;;;;;;;;5058215;28;20214;-75
2021/05/19 07:56:56;;;;;;;1.63;1.40;;;;;;;;;;5076571;28;20667;-76
2021/05/19 07:59:27;;;;;;;2.10;1.53;;;;;;;;;;5071785;28;20233;-76
2021/05/19 08:02:04;;;;;;;1.67;1.40;;;;;;;;;;5071004;28;20201;-74
2021/05/19 08:04:33;;;;;;;3.97;1.50;;;;;;;;;;5063170;28;20213;-76
2021/05/19 08:07:00;;;;;;;1.87;1.27;;;;;;;;;;5070670;28;20564;-76
2021/05/19 08:09:28;;;;;;;2.70;1.30;;;;;;;;;;5076019;28;20606;-74
2021/05/19 08:11:56;;;;;;;4.77;1.60;;;;;;;;;;5076677;28;20209;-76
2021/05/19 08:14:25;;;;;;;2.13;1.37;;;;;;;;;;5068062;28;20214;-75
2021/05/19 08:16:52;;;;;;;2.13;1.27;;;;;;;;;;5076021;28;20207;-77
2021/05/19 08:19:19;;;;;;;2.47;1.40;;;;;;;;;;5074038;28;20225;-77
2021/05/19 08:21:47;;;;;;;2.60;1.57;;;;;;;;;;5072829;28;20206;-76
2021/05/19 08:24:16;;;;;;;2.13;1.37;;;;;;;;;;5076127;28;20210;-75
2021/05/19 08:26:45;;;;;;;1.07;1.03;;;;;;;;;;5078249;28;20702;-75
2021/05/19 08:29:13;;;;;;;0.90;0.90;;;;;;;;;;5069633;28;20707;-75
2021/05/19 08:31:41;;;;;;;2.33;1.30;;;;;;;;;;5074400;28;21443;-77
2021/05/19 08:34:13;;;;;;;1.20;1.10;;;;;;;;;;5085667;28;20209;-77
2021/05/19 08:36:41;;;;;;;2.87;1.10;;;;;;;;;;5065748;28;20199;-76
2021/05/19 08:39:10;;;;;;;2.20;1.03;;;;;;;;;;5072531;28;20270;-77
2021/05/19 08:41:39;;;;;;;2.50;1.00;;;;;;;;;;5076285;28;20391;-75
2021/05/19 08:44:08;;;;;;;1.30;1.00;;;;;;;;;;5070154;28;20203;-75
2021/05/19 08:46:42;;;;;;;2.37;1.63;;;;;;;;;;5073300;28;20206;-76
2021/05/19 08:49:12;;;;;;;1.77;0.97;;;;;;;;;;5061955;28;20228;-77
2021/05/19 08:51:40;;;;;;;1.10;1.00;;;;;;;;;;5056101;28;20607;-76
2021/05/19 08:54:09;;;;;;;1.37;1.07;;;;;;;;;;5071857;28;20210;-76
2021/05/19 08:56:39;;;;;;;0.90;0.90;;;;;;;;;;5079957;28;20610;-76
2021/05/19 08:59:08;;;;;;;1.33;1.00;;;;;;;;;;5071827;28;20226;-77
2021/05/19 09:01:39;;;;;;;1.50;1.37;;;;;;;;;;5074941;28;20221;-77
2021/05/19 09:04:09;;;;;;;2.73;1.40;;;;;;;;;;5077629;28;20198;-76
2021/05/19 09:06:37;;;;;;;1.73;1.40;;;;;;;;;;5073601;28;20202;-77
2021/05/19 09:09:22;;;;;;;1.77;1.20;;;;;;;;;;5073136;28;20237;-78
2021/05/19 09:12:01;;;;;;;2.80;1.50;;;;;;;;;;5072204;28;20203;-77
2021/05/19 09:14:33;;;;;;;3.00;1.50;;;;;;;;;;5082019;28;20199;-77
2021/05/19 09:17:23;;;;;;;1.37;0.93;;;;;;;;;;5081998;28;20229;-76
2021/05/19 09:19:58;;;;;;;2.33;1.20;;;;;;;;;;5083225;28;20222;-77
2021/05/19 09:22:29;;;;;;;1.60;1.30;;;;;;;;;;5081307;28;20202;-77
2021/05/19 09:24:58;;;;;;;2.97;1.30;;;;;;;;;;5079678;28;20198;-75
2021/05/19 09:27:38;;;;;;;2.07;1.27;;;;;;;;;;5078711;28;20194;-76
2021/05/19 09:30:09;;;;;;;1.80;1.30;;;;;;;;;;5072950;28;20218;-77
2021/05/19 09:32:39;;;;;;;3.20;1.70;;;;;;;;;;5056581;28;20202;-77
2021/05/19 09:35:08;;;;;;;2.37;1.43;;;;;;;;;;5072542;28;20229;-77
2021/05/19 09:37:37;;;;;;;1.80;1.53;;;;;;;;;;5074108;28;20210;-76
2021/05/19 09:40:06;;;;;;;2.03;1.30;;;;;;;;;;5071785;28;20218;-77
2021/05/19 09:42:48;;;;;;;2.07;1.23;;;;;;;;;;5076275;28;20225;-77
2021/05/19 09:45:22;;;;;;;1.37;1.00;;;;;;;;;;5068996;28;20214;-76
2021/05/19 09:47:51;;;;;;;2.40;1.10;;;;;;;;;;5067960;28;20211;-78
2021/05/19 09:50:21;;;;;;;2.67;1.30;;;;;;;;;;5057516;28;20226;-77
2021/05/19 09:53:07;;;;;;;1.57;1.13;;;;;;;;;;5060633;28;20578;-80
2021/05/19 09:55:37;;;;;;;2.40;1.20;;;;;;;;;;5067687;28;20218;-76
2021/05/19 09:58:06;;;;;;;2.87;1.33;;;;;;;;;;5061813;28;20203;-76
2021/05/19 10:00:35;;;;;;;1.63;1.40;;;;;;;;;;5082214;28;20222;-77
2021/05/19 10:03:07;;;;;;;2.20;1.53;;;;;;;;;;5079560;28;20207;-78
2021/05/19 10:05:39;;;;;;;2.17;1.53;;;;;;;;;;5072286;28;20198;-76
2021/05/19 10:08:07;;;;;;;2.20;1.70;;;;;;;;;;5070806;28;20202;-76
2021/05/19 10:10:35;;;;;;;1.43;1.20;;;;;;;;;;5079259;28;20273;-77
2021/05/19 10:13:05;;;;;;;1.20;1.10;;;;;;;;;;5079371;28;20202;-75
2021/05/19 10:15:34;;;;;;;2.60;1.10;;;;;;;;;;5080045;28;20903;-77
2021/05/19 10:18:06;;;;;;;1.23;0.90;;;;;;;;;;5066876;28;20595;-77
2021/05/19 10:20:36;;;;;;;1.73;0.97;;;;;;;;;;5075481;28;20903;-77
2021/05/19 10:23:06;;;;;;;1.67;1.10;;;;;;;;;;5071910;28;20225;-78
2021/05/19 10:25:37;;;;;;;1.00;0.90;;;;;;;;;;5078510;28;20203;-76
2021/05/19 10:28:08;;;;;;;1.33;0.80;;;;;;;;;;5079332;28;20198;-78
2021/05/19 10:30:39;;;;;;;1.57;1.00;;;;;;;;;;5075792;28;20218;-77
2021/05/19 10:33:08;;;;;;;1.53;0.70;;;;;;;;;;5099323;28;20206;-77
2021/05/19 10:35:38;;;;;;;1.73;0.80;;;;;;;;;;5078477;28;20214;-77
2021/05/19 10:38:17;;;;;;;1.93;1.00;;;;;;;;;;5070135;28;20195;-76
2021/05/19 10:40:50;;;;;;;0.70;0.70;;;;;;;;;;5079266;28;20566;-76
2021/05/19 10:43:18;;;;;;;1.10;1.00;;;;;;;;;;5057936;28;20203;-77
2021/05/19 10:45:55;;;;;;;1.90;0.90;;;;;;;;;;5060025;28;20206;-76
2021/05/19 10:48:32;;;;;;;0.97;0.90;;;;;;;;;;5079172;28;20206;-75
2021/05/19 10:51:30;;;;;;;1.87;1.00;;;;;;;;;;5058777;28;20199;-75
2021/05/19 11:00:07;;;;;;;1.23;1.00;;;;;;;;;;5075282;28;20235;-76
2021/05/19 11:03:13;;;;;;;1.63;1.07;;;;;;;;;;5076642;28;20213;-76
2021/05/19 11:06:13;;;;;;;1.30;1.20;;;;;;;;;;5068304;28;20232;-75
2021/05/19 11:08:41;;;;;;;2.53;1.20;;;;;;;;;;5072785;28;20226;-75
2021/05/19 11:11:34;;;;;;;1.48;1.38;;;;;;;;;;5077864;28;21508;-74
2021/05/19 11:14:11;;;;;;;1.85;1.50;;;;;;;;;;5063353;28;20194;-74
2021/05/19 11:16:44;;;;;;;3.33;1.45;;;;;;;;;;5083416;28;20230;-74
2021/05/19 11:19:26;;;;;;;2.05;1.38;;;;;;;;;;5099827;28;20237;-74
2021/05/19 11:21:59;;;;;;;2.25;1.50;;;;;;;;;;5078547;28;20197;-74
2021/05/19 11:24:27;;;;;;;2.53;1.95;;;;;;;;;;5089763;28;20198;-75
2021/05/19 11:26:56;;;;;;;2.28;1.10;;;;;;;;;;5080410;28;20201;-75
2021/05/19 11:29:24;;;;;;;7.32;3.90;;;;;;;;;;5076182;28;20238;-75
2021/05/19 11:31:57;;;;;;;1.42;1.02;;;;;;;;;;5076112;28;20575;-75
2021/05/19 11:34:29;;;;;;;1.02;1.00;;;;;;;;;;5059794;28;20210;-75
2021/05/19 11:36:58;;;;;;;1.77;1.15;;;;;;;;;;5071948;28;20229;-75
2021/05/19 11:39:33;;;;;;;1.70;1.00;;;;;;;;;;5071774;28;20222;-75
2021/05/19 11:42:23;;;;;;;1.15;0.88;;;;;;;;;;5073523;28;20656;-75
2021/05/19 11:44:56;;;;;;;1.00;1.00;;;;;;;;;;5076651;28;20652;-75
2021/05/19 11:47:35;;;;;;;1.20;1.10;;;;;;;;;;5057229;28;20205;-76
2021/05/19 11:50:15;;;;;;;1.60;1.10;;;;;;;;;;5076220;28;20242;-76
2021/05/19 11:52:49;;;;;;;1.45;1.10;;;;;;;;;;5077139;28;20201;-75
2021/05/19 11:55:30;;;;;;;2.75;2.35;;;;;;;;;;5073046;28;20199;-75
2021/05/19 11:58:10;;;;;;;2.15;1.30;;;;;;;;;;5081572;28;20217;-75
2021/05/19 12:00:40;;;;;;;1.42;1.23;;;;;;;;;;5081886;28;20264;-75
2021/05/19 12:03:09;;;;;;;0.90;0.90;;;;;;;;;;5058944;28;20579;-75
2021/05/19 12:05:49;;;;;;;0.80;0.80;;;;;;;;;;5074065;28;20202;-75
2021/05/19 12:08:19;;;;;;;1.05;1.00;;;;;;;;;;5068524;28;20213;-75
2021/05/19 12:10:48;;;;;;;0.80;0.80;;;;;;;;;;5057654;28;20210;-75
2021/05/19 12:13:26;;;;;;;1.67;1.10;;;;;;;;;;5074583;28;20213;-75
2021/05/19 12:15:55;;;;;;;1.95;1.17;;;;;;;;;;5077581;28;20562;-75
2021/05/19 12:18:23;;;;;;;1.50;1.40;;;;;;;;;;5069688;28;20221;-76
2021/05/19 12:20:52;;;;;;;2.40;1.17;;;;;;;;;;5075736;28;20217;-75
2021/05/19 12:23:20;;;;;;;1.30;1.10;;;;;;;;;;5074569;28;20209;-76
2021/05/19 12:25:48;;;;;;;1.23;1.13;;;;;;;;;;5077181;28;20210;-76
2021/05/19 12:28:20;;;;;;;2.25;1.02;;;;;;;;;;5072545;28;20198;-76
2021/05/19 12:30:51;;;;;;;1.27;1.00;;;;;;;;;;5067669;28;20205;-76
2021/05/19 12:33:23;;;;;;;1.10;1.00;;;;;;;;;;5091114;28;20206;-76
2021/05/19 12:35:53;;;;;;;1.35;0.98;;;;;;;;;;5071168;28;20225;-76
2021/05/19 12:38:24;;;;;;;1.60;1.00;;;;;;;;;;5071771;28;20358;-76
2021/05/19 12:40:54;;;;;;;1.25;1.15;;;;;;;;;;5065162;28;20203;-76
2021/05/19 12:43:27;;;;;;;1.60;1.20;;;;;;;;;;5074060;28;20683;-76
2021/05/19 12:46:09;;;;;;;1.55;1.00;;;;;;;;;;5068972;28;20206;-76
2021/05/19 12:48:52;;;;;;;1.98;1.20;;;;;;;;;;5081020;28;20221;-77
2021/05/19 12:51:21;;;;;;;1.38;1.27;;;;;;;;;;5072323;28;20583;-77
2021/05/19 12:53:55;;;;;;;1.40;1.20;;;;;;;;;;5089509;28;20205;-76
2021/05/19 12:56:24;;;;;;;1.20;1.10;;;;;;;;;;5079489;28;20205;-77
2021/05/19 12:58:55;;;;;;;2.25;0.98;;;;;;;;;;5071181;28;20229;-76
2021/05/19 13:01:24;;;;;;;2.42;1.13;;;;;;;;;;5068621;28;20211;-78
2021/05/19 13:03:53;;;;;;;1.17;1.00;;;;;;;;;;5069268;28;20213;-76
2021/05/19 13:06:26;;;;;;;1.20;1.00;;;;;;;;;;5061844;28;20198;-76
2021/05/19 13:08:58;;;;;;;1.45;1.08;;;;;;;;;;5076251;28;20266;-77
2021/05/19 13:11:27;;;;;;;1.00;1.00;;;;;;;;;;5051504;28;21191;-77
2021/05/19 13:13:56;;;;;;;1.65;1.10;;;;;;;;;;5069961;28;20215;-77
2021/05/19 13:16:26;;;;;;;1.27;0.98;;;;;;;;;;5078288;28;20583;-77
2021/05/19 13:18:58;;;;;;;2.50;1.10;;;;;;;;;;5076194;28;20226;-76
2021/05/19 13:21:37;;;;;;;1.83;0.70;;;;;;;;;;5065996;28;20214;-77
2021/05/19 13:24:07;;;;;;;1.83;0.80;;;;;;;;;;5066291;28;20217;-77
2021/05/19 13:26:37;;;;;;;0.98;0.80;;;;;;;;;;5078238;28;20206;-77
2021/05/19 13:29:07;;;;;;;1.77;0.60;;;;;;;;;;5073963;28;20229;-75
2021/05/19 13:31:40;;;;;;;2.20;0.80;;;;;;;;;;5076793;28;20211;-79
2021/05/19 13:34:13;;;;;;;2.23;0.70;;;;;;;;;;5056690;28;20202;-77
2021/05/19 13:36:42;;;;;;;1.07;0.70;;;;;;;;;;5061556;28;20213;-78
2021/05/19 13:39:13;;;;;;;0.90;0.70;;;;;;;;;;5074004;28;20229;-80
2021/05/19 13:41:42;;;;;;;1.03;0.70;;;;;;;;;;5098399;28;20202;-79
2021/05/19 13:44:11;;;;;;;0.60;0.60;;;;;;;;;;5068133;28;20201;-78
2021/05/19 13:46:41;;;;;;;2.33;0.90;;;;;;;;;;5070465;28;20198;-78
2021/05/19 13:49:17;;;;;;;1.40;0.90;;;;;;;;;;5070836;28;20217;-77
2021/05/19 13:51:47;;;;;;;2.23;0.93;;;;;;;;;;5070847;28;20228;-77
2021/05/19 13:54:16;;;;;;;1.23;0.80;;;;;;;;;;5056896;28;20207;-78
2021/05/19 13:56:44;;;;;;;1.00;0.90;;;;;;;;;;5069847;28;20206;-80
2021/05/19 13:59:13;;;;;;;1.30;0.87;;;;;;;;;;5076292;28;20233;-77
2021/05/19 14:01:43;;;;;;;1.10;0.70;;;;;;;;;;5093358;28;20524;-79
2021/05/19 14:04:11;;;;;;;1.60;0.90;;;;;;;;;;5076470;28;20699;-80
2021/05/19 14:06:40;;;;;;;1.87;0.90;;;;;;;;;;5075879;28;20574;-78
2021/05/19 14:09:09;;;;;;;2.27;0.90;;;;;;;;;;5078580;28;20225;-78
2021/05/19 14:11:43;;;;;;;2.37;0.90;;;;;;;;;;5081513;28;20241;-78
2021/05/19 14:14:21;;;;;;;2.07;1.10;;;;;;;;;;5075957;28;20210;-78
2021/05/19 14:27:57;;;;;;;4.00;1.00;;;;;;;;;;5069831;28;20221;-76
2021/05/19 14:30:25;;;;;;;1.00;0.87;;;;;;;;;;5066568;28;20226;-77
2021/05/19 14:32:53;;;;;;;1.53;0.70;;;;;;;;;;5079599;28;20210;-77
2021/05/19 14:35:39;;;;;;;1.07;0.83;;;;;;;;;;5072992;28;20198;-76
2021/05/19 14:47:19;;;;;;;6.43;0.80;;;;;;;;;;5080581;28;20209;-76
2021/05/19 15:00:54;;;;;;;0.80;0.80;;;;;;;;;;5099557;28;20217;-75
2021/05/19 15:03:22;;;;;;;0.70;0.70;;;;;;;;;;5053981;28;20202;-76
2021/05/19 15:05:50;;;;;;;0.87;0.87;;;;;;;;;;5088084;28;20212;-76
2021/05/19 15:08:18;;;;;;;1.10;0.80;;;;;;;;;;5081361;28;20205;-76
2021/05/19 15:10:47;;;;;;;1.07;0.60;;;;;;;;;;5073463;28;21323;-76
2021/05/19 15:13:16;;;;;;;1.17;1.00;;;;;;;;;;5080015;28;20221;-77
2021/05/19 15:15:44;;;;;;;0.70;0.63;;;;;;;;;;5070961;28;20203;-76
2021/05/19 15:18:14;;;;;;;0.50;0.50;;;;;;;;;;5077927;28;20572;-77
2021/05/19 15:20:42;;;;;;;0.60;0.60;;;;;;;;;;5080354;28;20643;-77
2021/05/19 15:23:10;;;;;;;1.03;0.80;;;;;;;;;;5074732;28;20206;-77
2021/05/19 15:25:38;;;;;;;0.70;0.70;;;;;;;;;;5073226;28;20207;-78
2021/05/19 15:28:17;;;;;;;2.00;0.70;;;;;;;;;;5076244;28;20201;-78
2021/05/19 15:30:45;;;;;;;1.30;1.00;;;;;;;;;;5073685;28;21203;-77
2021/05/19 15:33:13;;;;;;;1.00;0.70;;;;;;;;;;5070005;28;20202;-80
2021/05/19 15:35:41;;;;;;;0.90;0.60;;;;;;;;;;5073942;28;20202;-77
2021/05/19 15:38:09;;;;;;;0.90;0.70;;;;;;;;;;5070898;28;20210;-77
2021/05/19 15:40:37;;;;;;;0.77;0.77;;;;;;;;;;5073720;28;20207;-77
2021/05/19 15:43:08;;;;;;;1.80;0.97;;;;;;;;;;5088762;28;20544;-79